sensor_id;sensor_type;location;lat;lon;timestamp;temperature;humidity
20057;DHT22;10189;49.546;7.906;2022-07-06T00:01:49;15.90;63.70
20057;DHT22;10189;49.546;7.906;2022-07-06T00:04:17;15.70;64.40
20057;DHT22;10189;49.546;7.906;2022-07-06T00:06:44;15.50;65.10
20057;DHT22;10189;49.546;7.906;2022-07-06T00:09:10;15.30;65.80
20057;DHT22;10189;49.546;7.906;2022-07-06T00:11:36;15.10;66.40
20057;DHT22;10189;49.546;7.906;2022-07-06T00:14:02;15.00;66.90
20057;DHT22;10189;49.546;7.906;2022-07-06T00:16:28;14.90;67.30
20057;DHT22;10189;49.546;7.906;2022-07-06T00:18:54;14.90;67.70
20057;DHT22;10189;49.546;7.906;2022-07-06T00:21:20;14.90;67.80
20057;DHT22;10189;49.546;7.906;2022-07-06T00:23:46;14.90;67.90
20057;DHT22;10189;49.546;7.906;2022-07-06T00:26:12;14.90;67.90
20057;DHT22;10189;49.546;7.906;2022-07-06T00:28:38;14.90;67.70
20057;DHT22;10189;49.546;7.906;2022-07-06T00:31:04;14.90;67.70
20057;DHT22;10189;49.546;7.906;2022-07-06T00:33:31;14.90;68.00
20057;DHT22;10189;49.546;7.906;2022-07-06T00:35:58;14.90;68.00
20057;DHT22;10189;49.546;7.906;2022-07-06T00:38:24;14.90;68.20
20057;DHT22;10189;49.546;7.906;2022-07-06T00:40:50;15.00;67.60
20057;DHT22;10189;49.546;7.906;2022-07-06T00:43:16;15.00;67.60
20057;DHT22;10189;49.546;7.906;2022-07-06T00:45:42;14.90;67.90
20057;DHT22;10189;49.546;7.906;2022-07-06T00:48:09;14.90;67.90
20057;DHT22;10189;49.546;7.906;2022-07-06T00:50:35;14.90;67.70
20057;DHT22;10189;49.546;7.906;2022-07-06T00:53:03;15.00;67.90
20057;DHT22;10189;49.546;7.906;2022-07-06T00:55:34;15.10;67.50
20057;DHT22;10189;49.546;7.906;2022-07-06T00:58:03;15.20;67.10
20057;DHT22;10189;49.546;7.906;2022-07-06T01:00:30;15.30;66.70
20057;DHT22;10189;49.546;7.906;2022-07-06T01:02:57;15.20;66.70
20057;DHT22;10189;49.546;7.906;2022-07-06T01:05:23;15.20;66.80
20057;DHT22;10189;49.546;7.906;2022-07-06T01:07:52;15.20;66.90
20057;DHT22;10189;49.546;7.906;2022-07-06T01:10:20;15.20;66.70
20057;DHT22;10189;49.546;7.906;2022-07-06T01:12:47;15.20;67.00
20057;DHT22;10189;49.546;7.906;2022-07-06T01:15:23;15.30;66.90
20057;DHT22;10189;49.546;7.906;2022-07-06T01:17:51;15.20;66.50
20057;DHT22;10189;49.546;7.906;2022-07-06T01:20:24;15.10;66.60
20057;DHT22;10189;49.546;7.906;2022-07-06T01:22:53;14.90;67.30
20057;DHT22;10189;49.546;7.906;2022-07-06T01:25:21;14.70;67.60
20057;DHT22;10189;49.546;7.906;2022-07-06T01:27:47;14.70;67.70
20057;DHT22;10189;49.546;7.906;2022-07-06T01:30:18;14.60;67.90
20057;DHT22;10189;49.546;7.906;2022-07-06T01:32:45;14.50;68.40
20057;DHT22;10189;49.546;7.906;2022-07-06T01:35:13;14.40;68.40
20057;DHT22;10189;49.546;7.906;2022-07-06T01:37:41;14.30;68.90
20057;DHT22;10189;49.546;7.906;2022-07-06T01:40:09;14.30;68.30
20057;DHT22;10189;49.546;7.906;2022-07-06T01:42:36;14.20;68.60
20057;DHT22;10189;49.546;7.906;2022-07-06T01:45:06;14.20;68.70
20057;DHT22;10189;49.546;7.906;2022-07-06T01:47:34;14.10;69.40
20057;DHT22;10189;49.546;7.906;2022-07-06T01:50:04;14.00;69.70
20057;DHT22;10189;49.546;7.906;2022-07-06T01:52:33;13.90;69.80
20057;DHT22;10189;49.546;7.906;2022-07-06T01:55:01;13.80;70.20
20057;DHT22;10189;49.546;7.906;2022-07-06T01:57:29;13.70;70.50
20057;DHT22;10189;49.546;7.906;2022-07-06T01:59:56;13.70;70.60
20057;DHT22;10189;49.546;7.906;2022-07-06T02:02:21;13.60;70.60
20057;DHT22;10189;49.546;7.906;2022-07-06T02:04:47;13.60;70.80
20057;DHT22;10189;49.546;7.906;2022-07-06T02:07:14;13.50;70.90
20057;DHT22;10189;49.546;7.906;2022-07-06T02:09:40;13.50;70.90
20057;DHT22;10189;49.546;7.906;2022-07-06T02:12:06;13.60;71.00
20057;DHT22;10189;49.546;7.906;2022-07-06T02:14:32;13.60;70.80
20057;DHT22;10189;49.546;7.906;2022-07-06T02:16:58;13.60;70.50
20057;DHT22;10189;49.546;7.906;2022-07-06T02:19:24;13.70;70.20
20057;DHT22;10189;49.546;7.906;2022-07-06T02:21:50;13.80;70.30
20057;DHT22;10189;49.546;7.906;2022-07-06T02:24:16;13.80;69.90
20057;DHT22;10189;49.546;7.906;2022-07-06T02:26:42;13.90;69.00
20057;DHT22;10189;49.546;7.906;2022-07-06T02:29:08;13.90;68.80
20057;DHT22;10189;49.546;7.906;2022-07-06T02:31:34;13.90;69.10
20057;DHT22;10189;49.546;7.906;2022-07-06T02:34:00;13.80;69.10
20057;DHT22;10189;49.546;7.906;2022-07-06T02:36:26;13.90;69.20
20057;DHT22;10189;49.546;7.906;2022-07-06T02:38:52;13.90;69.20
20057;DHT22;10189;49.546;7.906;2022-07-06T02:41:18;13.90;69.00
20057;DHT22;10189;49.546;7.906;2022-07-06T02:43:45;13.80;69.40
20057;DHT22;10189;49.546;7.906;2022-07-06T02:46:10;13.80;69.00
20057;DHT22;10189;49.546;7.906;2022-07-06T02:48:36;13.80;69.20
20057;DHT22;10189;49.546;7.906;2022-07-06T02:51:04;13.90;68.90
20057;DHT22;10189;49.546;7.906;2022-07-06T02:53:29;13.90;68.80
20057;DHT22;10189;49.546;7.906;2022-07-06T02:55:56;13.90;68.30
20057;DHT22;10189;49.546;7.906;2022-07-06T02:58:23;13.70;68.80
20057;DHT22;10189;49.546;7.906;2022-07-06T03:00:50;13.70;69.30
20057;DHT22;10189;49.546;7.906;2022-07-06T03:03:16;13.80;68.70
20057;DHT22;10189;49.546;7.906;2022-07-06T03:05:42;13.80;69.00
20057;DHT22;10189;49.546;7.906;2022-07-06T03:08:08;13.80;69.40
20057;DHT22;10189;49.546;7.906;2022-07-06T03:10:35;13.70;69.30
20057;DHT22;10189;49.546;7.906;2022-07-06T03:13:01;13.60;69.90
20057;DHT22;10189;49.546;7.906;2022-07-06T03:15:27;13.50;70.60
20057;DHT22;10189;49.546;7.906;2022-07-06T03:17:53;13.50;70.40
20057;DHT22;10189;49.546;7.906;2022-07-06T03:20:19;13.50;69.10
20057;DHT22;10189;49.546;7.906;2022-07-06T03:22:46;13.40;69.90
20057;DHT22;10189;49.546;7.906;2022-07-06T03:25:14;13.50;70.10
20057;DHT22;10189;49.546;7.906;2022-07-06T03:27:41;13.50;69.80
20057;DHT22;10189;49.546;7.906;2022-07-06T03:30:08;13.40;70.40
20057;DHT22;10189;49.546;7.906;2022-07-06T03:32:35;13.40;70.60
20057;DHT22;10189;49.546;7.906;2022-07-06T03:35:04;13.40;70.00
20057;DHT22;10189;49.546;7.906;2022-07-06T03:37:32;13.50;69.70
20057;DHT22;10189;49.546;7.906;2022-07-06T03:39:59;13.50;69.90
20057;DHT22;10189;49.546;7.906;2022-07-06T03:42:25;13.40;69.90
20057;DHT22;10189;49.546;7.906;2022-07-06T03:44:51;13.30;70.60
20057;DHT22;10189;49.546;7.906;2022-07-06T03:47:17;13.40;70.10
20057;DHT22;10189;49.546;7.906;2022-07-06T03:49:44;13.30;70.60
20057;DHT22;10189;49.546;7.906;2022-07-06T03:52:10;13.40;70.50
20057;DHT22;10189;49.546;7.906;2022-07-06T03:54:42;13.60;69.90
20057;DHT22;10189;49.546;7.906;2022-07-06T03:57:09;13.80;69.20
20057;DHT22;10189;49.546;7.906;2022-07-06T04:11:25;14.00;67.50
20057;DHT22;10189;49.546;7.906;2022-07-06T04:13:51;14.00;67.50
20057;DHT22;10189;49.546;7.906;2022-07-06T04:16:17;14.10;67.00
20057;DHT22;10189;49.546;7.906;2022-07-06T04:18:43;13.90;67.30
20057;DHT22;10189;49.546;7.906;2022-07-06T04:21:10;13.80;67.60
20057;DHT22;10189;49.546;7.906;2022-07-06T04:23:36;13.70;68.30
20057;DHT22;10189;49.546;7.906;2022-07-06T04:26:05;13.80;67.90
20057;DHT22;10189;49.546;7.906;2022-07-06T04:28:33;13.80;67.40
20057;DHT22;10189;49.546;7.906;2022-07-06T04:31:00;13.70;67.80
20057;DHT22;10189;49.546;7.906;2022-07-06T04:33:26;13.70;67.50
20057;DHT22;10189;49.546;7.906;2022-07-06T04:35:53;13.60;67.50
20057;DHT22;10189;49.546;7.906;2022-07-06T04:38:23;13.50;68.30
20057;DHT22;10189;49.546;7.906;2022-07-06T04:40:51;13.50;68.20
20057;DHT22;10189;49.546;7.906;2022-07-06T04:43:19;13.40;68.90
20057;DHT22;10189;49.546;7.906;2022-07-06T04:45:45;13.50;68.40
20057;DHT22;10189;49.546;7.906;2022-07-06T04:48:11;13.50;68.40
20057;DHT22;10189;49.546;7.906;2022-07-06T04:50:37;13.50;68.20
20057;DHT22;10189;49.546;7.906;2022-07-06T04:53:05;13.50;68.90
20057;DHT22;10189;49.546;7.906;2022-07-06T04:55:33;13.50;68.50
20057;DHT22;10189;49.546;7.906;2022-07-06T04:58:00;13.50;68.50
20057;DHT22;10189;49.546;7.906;2022-07-06T05:00:31;13.60;68.30
20057;DHT22;10189;49.546;7.906;2022-07-06T05:02:57;13.70;67.70
20057;DHT22;10189;49.546;7.906;2022-07-06T05:05:26;13.80;67.50
20057;DHT22;10189;49.546;7.906;2022-07-06T05:07:52;13.70;67.90
20057;DHT22;10189;49.546;7.906;2022-07-06T05:10:19;13.90;67.20
20057;DHT22;10189;49.546;7.906;2022-07-06T05:12:49;14.00;67.20
20057;DHT22;10189;49.546;7.906;2022-07-06T05:15:16;14.00;67.10
20057;DHT22;10189;49.546;7.906;2022-07-06T05:17:42;14.00;66.30
20057;DHT22;10189;49.546;7.906;2022-07-06T05:20:09;13.90;66.90
20057;DHT22;10189;49.546;7.906;2022-07-06T05:22:39;13.90;67.00
20057;DHT22;10189;49.546;7.906;2022-07-06T05:25:05;14.00;67.00
20057;DHT22;10189;49.546;7.906;2022-07-06T05:27:31;13.90;66.50
20057;DHT22;10189;49.546;7.906;2022-07-06T05:29:59;14.10;66.90
20057;DHT22;10189;49.546;7.906;2022-07-06T05:32:25;14.20;65.30
20057;DHT22;10189;49.546;7.906;2022-07-06T05:34:52;14.10;65.70
20057;DHT22;10189;49.546;7.906;2022-07-06T05:37:20;14.20;65.60
20057;DHT22;10189;49.546;7.906;2022-07-06T05:39:46;14.30;64.60
20057;DHT22;10189;49.546;7.906;2022-07-06T05:42:15;14.30;65.40
20057;DHT22;10189;49.546;7.906;2022-07-06T05:44:41;14.40;63.90
20057;DHT22;10189;49.546;7.906;2022-07-06T05:47:08;14.40;62.90
20057;DHT22;10189;49.546;7.906;2022-07-06T05:49:52;14.40;62.80
20057;DHT22;10189;49.546;7.906;2022-07-06T05:52:39;14.60;62.90
20057;DHT22;10189;49.546;7.906;2022-07-06T05:55:09;14.60;61.50
20057;DHT22;10189;49.546;7.906;2022-07-06T05:57:35;14.60;61.80
20057;DHT22;10189;49.546;7.906;2022-07-06T06:00:04;14.70;62.00
20057;DHT22;10189;49.546;7.906;2022-07-06T06:02:42;15.10;60.80
20057;DHT22;10189;49.546;7.906;2022-07-06T06:05:13;15.30;59.60
20057;DHT22;10189;49.546;7.906;2022-07-06T06:07:42;15.60;59.40
20057;DHT22;10189;49.546;7.906;2022-07-06T06:10:11;15.40;58.00
20057;DHT22;10189;49.546;7.906;2022-07-06T06:12:40;15.40;58.50
20057;DHT22;10189;49.546;7.906;2022-07-06T06:15:08;15.20;58.30
20057;DHT22;10189;49.546;7.906;2022-07-06T06:17:36;15.30;58.60
20057;DHT22;10189;49.546;7.906;2022-07-06T06:20:07;15.10;57.90
20057;DHT22;10189;49.546;7.906;2022-07-06T06:22:55;15.10;58.00
20057;DHT22;10189;49.546;7.906;2022-07-06T06:25:31;15.00;58.50
20057;DHT22;10189;49.546;7.906;2022-07-06T06:27:58;15.10;58.90
20057;DHT22;10189;49.546;7.906;2022-07-06T06:30:25;15.40;58.90
20057;DHT22;10189;49.546;7.906;2022-07-06T06:33:20;15.40;57.50
20057;DHT22;10189;49.546;7.906;2022-07-06T06:35:51;15.30;57.70
20057;DHT22;10189;49.546;7.906;2022-07-06T06:38:19;15.20;57.90
20057;DHT22;10189;49.546;7.906;2022-07-06T06:40:46;15.40;59.60
20057;DHT22;10189;49.546;7.906;2022-07-06T06:43:12;15.80;57.00
20057;DHT22;10189;49.546;7.906;2022-07-06T06:46:01;15.50;56.90
20057;DHT22;10189;49.546;7.906;2022-07-06T06:48:27;15.60;57.70
20057;DHT22;10189;49.546;7.906;2022-07-06T06:50:53;15.80;56.60
20057;DHT22;10189;49.546;7.906;2022-07-06T06:53:19;16.00;56.60
20057;DHT22;10189;49.546;7.906;2022-07-06T06:55:45;16.00;55.60
20057;DHT22;10189;49.546;7.906;2022-07-06T06:58:11;16.00;56.80
20057;DHT22;10189;49.546;7.906;2022-07-06T07:00:37;15.90;55.80
20057;DHT22;10189;49.546;7.906;2022-07-06T07:03:03;15.80;55.70
20057;DHT22;10189;49.546;7.906;2022-07-06T07:05:29;15.80;56.10
20057;DHT22;10189;49.546;7.906;2022-07-06T07:07:54;15.90;56.10
20057;DHT22;10189;49.546;7.906;2022-07-06T07:10:25;16.10;55.70
20057;DHT22;10189;49.546;7.906;2022-07-06T07:12:51;16.30;55.10
20057;DHT22;10189;49.546;7.906;2022-07-06T07:15:18;16.20;55.50
20057;DHT22;10189;49.546;7.906;2022-07-06T07:17:44;16.50;53.90
20057;DHT22;10189;49.546;7.906;2022-07-06T07:20:10;16.40;54.10
20057;DHT22;10189;49.546;7.906;2022-07-06T07:22:37;16.30;53.50
20057;DHT22;10189;49.546;7.906;2022-07-06T07:25:03;16.20;54.90
20057;DHT22;10189;49.546;7.906;2022-07-06T07:27:30;16.30;54.70
20057;DHT22;10189;49.546;7.906;2022-07-06T07:29:56;16.30;54.70
20057;DHT22;10189;49.546;7.906;2022-07-06T07:32:22;16.40;54.00
20057;DHT22;10189;49.546;7.906;2022-07-06T07:34:48;16.40;54.10
20057;DHT22;10189;49.546;7.906;2022-07-06T07:37:14;16.60;53.80
20057;DHT22;10189;49.546;7.906;2022-07-06T07:39:40;16.80;54.10
20057;DHT22;10189;49.546;7.906;2022-07-06T07:42:05;17.00;53.50
20057;DHT22;10189;49.546;7.906;2022-07-06T07:44:31;16.90;52.70
20057;DHT22;10189;49.546;7.906;2022-07-06T07:46:57;16.70;52.50
20057;DHT22;10189;49.546;7.906;2022-07-06T07:49:23;16.80;54.70
20057;DHT22;10189;49.546;7.906;2022-07-06T07:51:49;17.20;53.00
20057;DHT22;10189;49.546;7.906;2022-07-06T07:54:15;17.60;51.90
20057;DHT22;10189;49.546;7.906;2022-07-06T07:56:42;17.70;50.90
20057;DHT22;10189;49.546;7.906;2022-07-06T07:59:08;17.60;50.70
20057;DHT22;10189;49.546;7.906;2022-07-06T08:01:35;17.40;51.40
20057;DHT22;10189;49.546;7.906;2022-07-06T08:04:02;17.70;52.00
20057;DHT22;10189;49.546;7.906;2022-07-06T08:06:28;18.10;50.70
20057;DHT22;10189;49.546;7.906;2022-07-06T08:08:53;18.40;50.10
20057;DHT22;10189;49.546;7.906;2022-07-06T08:11:19;18.50;48.90
20057;DHT22;10189;49.546;7.906;2022-07-06T08:13:46;18.20;49.60
20057;DHT22;10189;49.546;7.906;2022-07-06T08:16:11;18.10;49.40
20057;DHT22;10189;49.546;7.906;2022-07-06T08:18:37;18.10;49.50
20057;DHT22;10189;49.546;7.906;2022-07-06T08:21:04;18.20;48.70
20057;DHT22;10189;49.546;7.906;2022-07-06T08:23:31;18.00;49.10
20057;DHT22;10189;49.546;7.906;2022-07-06T08:25:57;17.90;48.90
20057;DHT22;10189;49.546;7.906;2022-07-06T08:28:22;18.10;49.30
20057;DHT22;10189;49.546;7.906;2022-07-06T08:30:48;18.40;48.60
20057;DHT22;10189;49.546;7.906;2022-07-06T08:33:14;18.30;47.80
20057;DHT22;10189;49.546;7.906;2022-07-06T08:35:40;18.20;47.10
20057;DHT22;10189;49.546;7.906;2022-07-06T08:38:06;18.10;48.90
20057;DHT22;10189;49.546;7.906;2022-07-06T08:40:36;18.30;49.20
20057;DHT22;10189;49.546;7.906;2022-07-06T08:43:04;18.50;47.60
20057;DHT22;10189;49.546;7.906;2022-07-06T08:45:31;19.00;46.90
20057;DHT22;10189;49.546;7.906;2022-07-06T08:48:04;19.00;46.30
20057;DHT22;10189;49.546;7.906;2022-07-06T08:50:33;19.40;46.10
20057;DHT22;10189;49.546;7.906;2022-07-06T08:53:00;19.50;44.70
20057;DHT22;10189;49.546;7.906;2022-07-06T08:55:27;19.50;44.40
20057;DHT22;10189;49.546;7.906;2022-07-06T08:57:57;19.40;45.30
20057;DHT22;10189;49.546;7.906;2022-07-06T09:00:24;19.20;45.60
20057;DHT22;10189;49.546;7.906;2022-07-06T09:02:51;19.10;46.40
20057;DHT22;10189;49.546;7.906;2022-07-06T09:05:23;19.10;46.60
20057;DHT22;10189;49.546;7.906;2022-07-06T09:07:50;19.30;46.80
20057;DHT22;10189;49.546;7.906;2022-07-06T09:10:18;19.30;45.50
20057;DHT22;10189;49.546;7.906;2022-07-06T09:12:47;19.30;44.40
20057;DHT22;10189;49.546;7.906;2022-07-06T09:15:15;19.40;45.60
20057;DHT22;10189;49.546;7.906;2022-07-06T09:17:42;19.60;45.40
20057;DHT22;10189;49.546;7.906;2022-07-06T09:20:10;19.60;45.30
20057;DHT22;10189;49.546;7.906;2022-07-06T09:22:39;19.60;45.10
20057;DHT22;10189;49.546;7.906;2022-07-06T09:25:09;19.40;47.20
20057;DHT22;10189;49.546;7.906;2022-07-06T09:27:42;19.50;45.50
20057;DHT22;10189;49.546;7.906;2022-07-06T09:30:13;19.70;44.30
20057;DHT22;10189;49.546;7.906;2022-07-06T09:32:40;19.40;44.80
20057;DHT22;10189;49.546;7.906;2022-07-06T09:40:41;19.20;43.90
20057;DHT22;10189;49.546;7.906;2022-07-06T09:43:20;19.40;42.60
20057;DHT22;10189;49.546;7.906;2022-07-06T09:45:54;19.50;44.30
20057;DHT22;10189;49.546;7.906;2022-07-06T09:48:23;19.80;43.50
20057;DHT22;10189;49.546;7.906;2022-07-06T09:50:54;20.00;41.90
20057;DHT22;10189;49.546;7.906;2022-07-06T09:53:22;20.00;40.40
20057;DHT22;10189;49.546;7.906;2022-07-06T09:55:51;19.40;41.60
20057;DHT22;10189;49.546;7.906;2022-07-06T09:58:19;19.20;43.40
20057;DHT22;10189;49.546;7.906;2022-07-06T10:00:46;19.50;41.50
20057;DHT22;10189;49.546;7.906;2022-07-06T10:03:14;19.50;43.50
20057;DHT22;10189;49.546;7.906;2022-07-06T10:05:43;19.50;43.30
20057;DHT22;10189;49.546;7.906;2022-07-06T10:08:13;19.60;43.30
20057;DHT22;10189;49.546;7.906;2022-07-06T10:10:41;19.80;40.60
20057;DHT22;10189;49.546;7.906;2022-07-06T10:13:08;19.80;42.90
20057;DHT22;10189;49.546;7.906;2022-07-06T10:15:37;19.90;42.10
20057;DHT22;10189;49.546;7.906;2022-07-06T10:18:09;20.00;40.20
20057;DHT22;10189;49.546;7.906;2022-07-06T10:20:38;20.00;40.70
20057;DHT22;10189;49.546;7.906;2022-07-06T10:23:07;20.00;41.80
20057;DHT22;10189;49.546;7.906;2022-07-06T10:25:34;20.40;42.00
20057;DHT22;10189;49.546;7.906;2022-07-06T10:28:01;20.60;42.00
20057;DHT22;10189;49.546;7.906;2022-07-06T10:30:28;20.20;40.70
20057;DHT22;10189;49.546;7.906;2022-07-06T10:32:56;20.20;42.50
20057;DHT22;10189;49.546;7.906;2022-07-06T10:35:24;20.50;39.70
20057;DHT22;10189;49.546;7.906;2022-07-06T10:38:09;20.60;40.50
20057;DHT22;10189;49.546;7.906;2022-07-06T10:40:38;20.70;41.20
20057;DHT22;10189;49.546;7.906;2022-07-06T10:43:31;20.70;42.90
20057;DHT22;10189;49.546;7.906;2022-07-06T10:46:09;20.90;40.20
20057;DHT22;10189;49.546;7.906;2022-07-06T10:48:46;20.70;41.00
20057;DHT22;10189;49.546;7.906;2022-07-06T10:51:25;20.50;40.80
20057;DHT22;10189;49.546;7.906;2022-07-06T10:53:59;20.50;42.30
20057;DHT22;10189;49.546;7.906;2022-07-06T10:56:37;20.70;41.00
20057;DHT22;10189;49.546;7.906;2022-07-06T10:59:14;20.30;41.10
20057;DHT22;10189;49.546;7.906;2022-07-06T11:02:11;20.30;41.80
20057;DHT22;10189;49.546;7.906;2022-07-06T11:04:43;20.30;40.10
20057;DHT22;10189;49.546;7.906;2022-07-06T11:07:14;20.50;41.40
20057;DHT22;10189;49.546;7.906;2022-07-06T11:09:57;20.80;41.80
20057;DHT22;10189;49.546;7.906;2022-07-06T11:12:24;20.40;39.60
20057;DHT22;10189;49.546;7.906;2022-07-06T11:14:52;20.40;42.20
20057;DHT22;10189;49.546;7.906;2022-07-06T11:17:19;20.80;41.70
20057;DHT22;10189;49.546;7.906;2022-07-06T11:20:08;21.00;39.30
20057;DHT22;10189;49.546;7.906;2022-07-06T11:22:37;21.20;41.70
20057;DHT22;10189;49.546;7.906;2022-07-06T11:25:05;20.90;39.30
20057;DHT22;10189;49.546;7.906;2022-07-06T11:27:33;21.10;39.80
20057;DHT22;10189;49.546;7.906;2022-07-06T11:30:00;21.20;39.30
20057;DHT22;10189;49.546;7.906;2022-07-06T11:32:27;21.30;39.30
20057;DHT22;10189;49.546;7.906;2022-07-06T11:34:54;20.90;40.10
20057;DHT22;10189;49.546;7.906;2022-07-06T11:37:20;20.90;40.70
20057;DHT22;10189;49.546;7.906;2022-07-06T11:39:48;20.90;37.40
20057;DHT22;10189;49.546;7.906;2022-07-06T11:42:16;20.60;40.40
20057;DHT22;10189;49.546;7.906;2022-07-06T11:44:43;20.40;38.50
20057;DHT22;10189;49.546;7.906;2022-07-06T11:47:11;20.40;38.00
20057;DHT22;10189;49.546;7.906;2022-07-06T11:49:40;20.30;39.80
20057;DHT22;10189;49.546;7.906;2022-07-06T11:52:10;20.60;38.80
20057;DHT22;10189;49.546;7.906;2022-07-06T11:54:38;20.80;40.70
20057;DHT22;10189;49.546;7.906;2022-07-06T11:57:08;20.90;37.70
20057;DHT22;10189;49.546;7.906;2022-07-06T11:59:37;21.20;40.00
20057;DHT22;10189;49.546;7.906;2022-07-06T12:02:14;21.40;37.30
20057;DHT22;10189;49.546;7.906;2022-07-06T12:04:44;21.40;40.00
20057;DHT22;10189;49.546;7.906;2022-07-06T12:07:13;21.60;38.20
20057;DHT22;10189;49.546;7.906;2022-07-06T12:09:44;21.60;39.20
20057;DHT22;10189;49.546;7.906;2022-07-06T12:12:12;21.40;39.40
20057;DHT22;10189;49.546;7.906;2022-07-06T12:14:39;21.10;39.70
20057;DHT22;10189;49.546;7.906;2022-07-06T12:17:10;21.20;39.10
20057;DHT22;10189;49.546;7.906;2022-07-06T12:19:40;21.10;39.50
20057;DHT22;10189;49.546;7.906;2022-07-06T12:22:07;20.90;40.80
20057;DHT22;10189;49.546;7.906;2022-07-06T12:24:35;20.70;40.20
20057;DHT22;10189;49.546;7.906;2022-07-06T12:27:17;21.00;41.10
20057;DHT22;10189;49.546;7.906;2022-07-06T12:29:46;21.20;40.10
20057;DHT22;10189;49.546;7.906;2022-07-06T12:32:21;21.40;41.20
20057;DHT22;10189;49.546;7.906;2022-07-06T12:35:07;21.70;41.80
20057;DHT22;10189;49.546;7.906;2022-07-06T12:37:35;21.70;39.00
20057;DHT22;10189;49.546;7.906;2022-07-06T12:40:02;21.70;38.60
20057;DHT22;10189;49.546;7.906;2022-07-06T12:42:48;21.70;38.60
20057;DHT22;10189;49.546;7.906;2022-07-06T12:45:15;21.50;38.70
20057;DHT22;10189;49.546;7.906;2022-07-06T12:47:41;21.40;40.80
20057;DHT22;10189;49.546;7.906;2022-07-06T12:50:35;21.60;39.70
20057;DHT22;10189;49.546;7.906;2022-07-06T12:53:04;21.60;37.80
20057;DHT22;10189;49.546;7.906;2022-07-06T12:55:31;21.70;39.10
20057;DHT22;10189;49.546;7.906;2022-07-06T12:57:58;21.60;37.90
20057;DHT22;10189;49.546;7.906;2022-07-06T13:00:25;21.70;38.10
20057;DHT22;10189;49.546;7.906;2022-07-06T13:02:53;21.80;37.10
20057;DHT22;10189;49.546;7.906;2022-07-06T13:05:26;21.90;38.40
20057;DHT22;10189;49.546;7.906;2022-07-06T13:07:57;22.00;38.00
20057;DHT22;10189;49.546;7.906;2022-07-06T13:10:24;22.20;39.10
20057;DHT22;10189;49.546;7.906;2022-07-06T13:12:50;22.40;38.20
20057;DHT22;10189;49.546;7.906;2022-07-06T13:15:17;22.60;37.90
20057;DHT22;10189;49.546;7.906;2022-07-06T13:17:43;22.70;38.30
20057;DHT22;10189;49.546;7.906;2022-07-06T13:20:11;22.80;38.10
20057;DHT22;10189;49.546;7.906;2022-07-06T13:22:38;22.80;38.00
20057;DHT22;10189;49.546;7.906;2022-07-06T13:25:05;22.40;36.50
20057;DHT22;10189;49.546;7.906;2022-07-06T13:27:31;22.30;36.80
20057;DHT22;10189;49.546;7.906;2022-07-06T13:29:57;22.20;37.50
20057;DHT22;10189;49.546;7.906;2022-07-06T13:32:24;22.10;37.10
20057;DHT22;10189;49.546;7.906;2022-07-06T13:34:50;22.00;37.10
20057;DHT22;10189;49.546;7.906;2022-07-06T13:37:15;22.20;37.80
20057;DHT22;10189;49.546;7.906;2022-07-06T13:39:41;22.30;37.90
20057;DHT22;10189;49.546;7.906;2022-07-06T13:42:07;22.20;37.60
20057;DHT22;10189;49.546;7.906;2022-07-06T13:44:34;22.30;37.60
20057;DHT22;10189;49.546;7.906;2022-07-06T13:47:01;22.50;37.20
20057;DHT22;10189;49.546;7.906;2022-07-06T13:49:27;22.70;37.80
20057;DHT22;10189;49.546;7.906;2022-07-06T13:51:53;22.70;37.90
20057;DHT22;10189;49.546;7.906;2022-07-06T13:54:20;22.80;36.90
20057;DHT22;10189;49.546;7.906;2022-07-06T13:56:46;22.70;37.00
20057;DHT22;10189;49.546;7.906;2022-07-06T13:59:12;22.70;37.50
20057;DHT22;10189;49.546;7.906;2022-07-06T14:01:38;22.60;37.60
20057;DHT22;10189;49.546;7.906;2022-07-06T14:04:04;22.40;37.60
20057;DHT22;10189;49.546;7.906;2022-07-06T14:06:30;22.20;37.90
20057;DHT22;10189;49.546;7.906;2022-07-06T14:08:56;22.10;38.20
20057;DHT22;10189;49.546;7.906;2022-07-06T14:11:22;22.00;38.50
20057;DHT22;10189;49.546;7.906;2022-07-06T14:13:48;21.60;38.60
20057;DHT22;10189;49.546;7.906;2022-07-06T14:16:14;21.50;38.80
20057;DHT22;10189;49.546;7.906;2022-07-06T14:18:40;21.60;39.90
20057;DHT22;10189;49.546;7.906;2022-07-06T14:21:06;21.70;39.50
20057;DHT22;10189;49.546;7.906;2022-07-06T14:23:32;21.80;38.80
20057;DHT22;10189;49.546;7.906;2022-07-06T14:25:58;21.80;38.70
20057;DHT22;10189;49.546;7.906;2022-07-06T14:28:24;21.80;38.70
20057;DHT22;10189;49.546;7.906;2022-07-06T14:30:51;21.70;38.30
20057;DHT22;10189;49.546;7.906;2022-07-06T14:33:17;21.40;39.00
20057;DHT22;10189;49.546;7.906;2022-07-06T14:35:49;21.40;39.40
20057;DHT22;10189;49.546;7.906;2022-07-06T14:38:19;21.40;39.80
20057;DHT22;10189;49.546;7.906;2022-07-06T14:40:46;21.40;39.20
20057;DHT22;10189;49.546;7.906;2022-07-06T14:43:14;21.50;39.10
20057;DHT22;10189;49.546;7.906;2022-07-06T14:45:42;21.60;39.20
20057;DHT22;10189;49.546;7.906;2022-07-06T14:48:08;21.70;39.50
20057;DHT22;10189;49.546;7.906;2022-07-06T14:50:35;21.70;38.50
20057;DHT22;10189;49.546;7.906;2022-07-06T14:53:03;21.60;39.20
20057;DHT22;10189;49.546;7.906;2022-07-06T14:55:30;21.50;39.40
20057;DHT22;10189;49.546;7.906;2022-07-06T14:57:57;21.50;39.50
20057;DHT22;10189;49.546;7.906;2022-07-06T15:00:23;21.30;39.90
20057;DHT22;10189;49.546;7.906;2022-07-06T15:02:49;21.10;40.10
20057;DHT22;10189;49.546;7.906;2022-07-06T15:05:15;20.90;40.40
20057;DHT22;10189;49.546;7.906;2022-07-06T15:07:41;20.70;40.90
20057;DHT22;10189;49.546;7.906;2022-07-06T15:10:07;20.70;41.10
20057;DHT22;10189;49.546;7.906;2022-07-06T15:12:37;20.70;41.70
20057;DHT22;10189;49.546;7.906;2022-07-06T15:15:03;20.90;40.30
20057;DHT22;10189;49.546;7.906;2022-07-06T15:17:30;21.00;40.00
20057;DHT22;10189;49.546;7.906;2022-07-06T15:19:58;20.50;40.60
20057;DHT22;10189;49.546;7.906;2022-07-06T15:22:24;20.30;41.40
20057;DHT22;10189;49.546;7.906;2022-07-06T15:24:50;20.30;41.20
20057;DHT22;10189;49.546;7.906;2022-07-06T15:27:16;20.40;41.70
20057;DHT22;10189;49.546;7.906;2022-07-06T15:29:42;20.50;41.00
20057;DHT22;10189;49.546;7.906;2022-07-06T15:32:08;20.30;41.00
20057;DHT22;10189;49.546;7.906;2022-07-06T15:34:34;20.00;41.70
20057;DHT22;10189;49.546;7.906;2022-07-06T15:37:02;20.00;41.60
20057;DHT22;10189;49.546;7.906;2022-07-06T15:39:28;19.90;41.30
20057;DHT22;10189;49.546;7.906;2022-07-06T15:41:54;19.80;42.20
20057;DHT22;10189;49.546;7.906;2022-07-06T15:44:20;19.80;42.30
20057;DHT22;10189;49.546;7.906;2022-07-06T15:46:46;19.90;41.60
20057;DHT22;10189;49.546;7.906;2022-07-06T15:49:14;20.00;41.20
20057;DHT22;10189;49.546;7.906;2022-07-06T15:51:43;20.00;41.50
20057;DHT22;10189;49.546;7.906;2022-07-06T15:54:10;20.20;40.50